Terminal Aerodrome Forecast
Issued by NWS Duluth, MN

Home | Current Version | Previous Version | Text Only | Print | Product List | Glossary On
Versions: 1 2 3 4 5 6 7 8 9 10 11 12 13
000
FTUS43 KDLH 241100 RRA
TAFINL
TAF
KINL 241140Z 2412/2512 10005KT P6SM OVC060
     FM241700 13009KT P6SM -RA OVC050
     FM242200 12008KT 4SM -DZ BR OVC007
     FM250700 09007KT P6SM BKN030=

USA.gov is the U.S. government's official web portal to all federal, state and local government web resources and services.